Time;durP1;ratioP1;P1;durP2;ratioP2;P2;SDS_P1;SDS_P2;PMS_P1;PMS_P2;Temp;Humidity;BMP_temperature;BMP_pressure;BME280_temperature;BME280_humidity;BME280_pressure;Samples;Min_cycle;Max_cycle;Signal;HPM_P1;HPM_P2
2023/02/11 00:00:34;;;;;;;41.70;22.83;;;2.40;54.90;;;;;;6247025;23;20011;-66
2023/02/11 00:02:59;;;;;;;43.67;21.97;;;2.40;55.00;;;;;;6246931;23;20004;-66
2023/02/11 00:05:25;;;;;;;42.97;21.13;;;2.40;55.00;;;;;;6247112;23;20012;-66
2023/02/11 00:07:51;;;;;;;41.33;22.10;;;2.40;55.10;;;;;;6247430;23;20008;-66
2023/02/11 00:10:16;;;;;;;35.17;20.97;;;2.30;55.20;;;;;;6246931;23;20000;-65
2023/02/11 00:12:42;;;;;;;38.80;22.17;;;2.30;55.30;;;;;;6247283;23;20000;-66
2023/02/11 00:15:09;;;;;;;35.17;20.83;;;2.20;55.40;;;;;;6247298;23;20027;-66
2023/02/11 00:17:34;;;;;;;42.63;22.13;;;2.30;55.80;;;;;;6246617;23;20012;-66
2023/02/11 00:20:00;;;;;;;40.30;22.60;;;2.30;55.40;;;;;;6246924;23;19996;-65
2023/02/11 00:22:26;;;;;;;38.70;21.67;;;2.20;55.40;;;;;;6247099;23;20020;-66
2023/02/11 00:24:52;;;;;;;37.93;20.30;;;2.20;56.00;;;;;;6246923;23;20015;-63
2023/02/11 00:27:17;;;;;;;39.40;22.00;;;2.30;56.60;;;;;;6247327;23;20360;-67
2023/02/11 00:29:43;;;;;;;37.67;21.20;;;2.30;56.20;;;;;;6246718;23;20430;-66
2023/02/11 00:32:09;;;;;;;35.87;20.10;;;2.20;55.80;;;;;;6246633;23;20000;-66
2023/02/11 00:34:35;;;;;;;33.83;20.53;;;2.20;55.90;;;;;;6247020;23;20410;-65
2023/02/11 00:37:01;;;;;;;39.57;21.57;;;2.10;55.90;;;;;;6247118;23;20005;-65
2023/02/11 00:39:28;;;;;;;33.87;20.47;;;2.10;55.90;;;;;;6246894;23;20062;-66
2023/02/11 00:41:53;;;;;;;37.53;20.97;;;2.10;56.30;;;;;;6247035;23;20012;-66
2023/02/11 00:44:20;;;;;;;45.80;24.23;;;2.10;56.20;;;;;;6246415;23;20369;-67
2023/02/11 00:46:45;;;;;;;40.33;21.77;;;2.10;56.20;;;;;;6246689;23;20038;-66
2023/02/11 00:49:11;;;;;;;41.23;24.60;;;2.10;56.30;;;;;;6246706;23;20071;-66
2023/02/11 00:51:37;;;;;;;43.37;24.03;;;2.10;56.30;;;;;;6246899;23;20000;-66
2023/02/11 00:54:03;;;;;;;46.70;24.53;;;2.00;56.30;;;;;;6246601;23;20000;-67
2023/02/11 00:56:29;;;;;;;44.00;24.20;;;2.00;56.60;;;;;;6246166;23;20000;-66
2023/02/11 00:58:54;;;;;;;45.23;23.30;;;2.00;56.60;;;;;;6219615;23;20074;-66
2023/02/11 01:01:20;;;;;;;43.63;22.03;;;1.90;56.70;;;;;;6246658;23;20076;-65
2023/02/11 01:09:37;;;;;;;37.27;20.43;;;1.90;56.80;;;;;;6246568;23;20334;-66
2023/02/11 01:12:03;;;;;;;37.70;20.50;;;1.90;56.90;;;;;;6246788;23;20065;-66
2023/02/11 01:14:29;;;;;;;33.83;19.60;;;1.90;56.80;;;;;;6246273;23;20000;-66
2023/02/11 01:16:55;;;;;;;36.73;19.27;;;2.00;56.80;;;;;;6245838;23;20458;-66
2023/02/11 01:19:20;;;;;;;33.30;18.70;;;1.90;56.60;;;;;;6246196;23;20433;-66
2023/02/11 01:21:46;;;;;;;33.00;18.27;;;1.90;56.80;;;;;;6246322;23;20083;-67
2023/02/11 01:24:12;;;;;;;35.07;19.30;;;1.80;56.70;;;;;;6246203;23;19996;-65
2023/02/11 01:26:37;;;;;;;32.07;18.03;;;1.90;56.90;;;;;;6246095;23;20004;-67
2023/02/11 01:29:03;;;;;;;33.23;17.37;;;1.80;57.00;;;;;;6246109;23;20004;-66
2023/02/11 01:31:30;;;;;;;34.23;18.57;;;1.80;57.50;;;;;;6246163;23;20119;-66
2023/02/11 01:33:55;;;;;;;32.73;18.30;;;1.80;57.10;;;;;;6245904;23;20000;-66
2023/02/11 01:36:21;;;;;;;31.90;18.50;;;1.80;57.20;;;;;;6246142;23;20330;-65
2023/02/11 01:38:48;;;;;;;33.27;18.10;;;1.70;57.50;;;;;;6246113;23;20008;-66
2023/02/11 01:41:15;;;;;;;32.03;18.03;;;1.70;57.60;;;;;;6246289;23;20079;-66
2023/02/11 01:43:46;;;;;;;33.33;17.83;;;1.70;57.20;;;;;;6246342;23;20038;-66
2023/02/11 01:46:31;;;;;;;32.10;18.67;;;1.70;57.20;;;;;;6246282;23;20020;-66
2023/02/11 01:49:27;;;;;;;32.17;16.73;;;1.60;57.00;;;;;;6245836;23;20000;-66
2023/02/11 01:52:04;;;;;;;27.63;16.63;;;1.70;57.10;;;;;;6246027;23;20441;-65
2023/02/11 01:57:25;;;;;;;25.50;13.87;;;1.60;57.50;;;;;;6245887;23;20092;-66
2023/02/11 02:00:14;;;;;;;25.37;13.90;;;1.60;57.70;;;;;;6242218;23;20011;-66
2023/02/11 02:02:45;;;;;;;20.07;12.20;;;1.60;58.00;;;;;;6242813;23;19997;-67
2023/02/11 02:05:27;;;;;;;22.63;12.57;;;1.60;57.50;;;;;;6244548;23;20442;-66
2023/02/11 02:08:02;;;;;;;20.50;11.50;;;1.60;57.20;;;;;;6245591;23;20078;-66
2023/02/11 02:10:29;;;;;;;20.67;9.83;;;1.70;57.00;;;;;;6245583;23;19996;-65
2023/02/11 02:12:55;;;;;;;21.00;11.27;;;1.80;56.60;;;;;;6245546;23;20028;-67
2023/02/11 02:15:25;;;;;;;17.93;10.67;;;1.80;56.50;;;;;;6245882;23;20031;-66
2023/02/11 02:18:29;;;;;;;20.50;10.47;;;1.90;56.50;;;;;;6245487;23;20091;-66
2023/02/11 02:21:28;;;;;;;16.00;10.45;;;2.00;56.20;;;;;;6245681;23;20000;-66
2023/02/11 02:24:14;;;;;;;20.57;11.40;;;2.00;56.20;;;;;;6245777;23;20079;-66
2023/02/11 02:26:51;;;;;;;21.17;13.33;;;2.10;56.30;;;;;;6245465;23;20095;-66
2023/02/11 02:29:39;;;;;;;21.00;12.63;;;2.10;56.00;;;;;;6245263;23;20082;-66
2023/02/11 02:32:31;;;;;;;19.70;11.47;;;2.10;56.00;;;;;;6245596;23;20053;-66
2023/02/11 02:35:40;;;;;;;18.93;11.63;;;2.00;56.10;;;;;;6245771;23;20004;-66
2023/02/11 02:38:27;;;;;;;22.27;12.23;;;2.00;56.10;;;;;;6245408;23;20082;-65
2023/02/11 02:40:57;;;;;;;20.20;11.77;;;2.00;56.40;;;;;;6218757;23;20296;-67
2023/02/11 02:43:26;;;;;;;24.80;11.93;;;2.00;56.40;;;;;;6245172;23;20004;-66
2023/02/11 02:45:52;;;;;;;19.17;11.27;;;2.00;56.40;;;;;;6245236;23;20034;-66
2023/02/11 02:48:30;;;;;;;17.43;10.60;;;2.00;56.70;;;;;;6245186;23;20000;-66
2023/02/11 02:51:35;;;;;;;18.73;10.47;;;2.10;56.40;;;;;;6245496;23;20008;-67
2023/02/11 02:54:36;;;;;;;18.30;10.97;;;2.10;56.30;;;;;;6218718;23;20026;-66
2023/02/11 02:57:20;;;;;;;18.93;10.33;;;2.10;56.10;;;;;;6245241;23;20023;-66
2023/02/11 03:00:23;;;;;;;22.67;11.60;;;2.20;56.10;;;;;;6245219;23;20000;-66
2023/02/11 03:02:59;;;;;;;18.08;9.82;;;2.20;55.90;;;;;;6245282;23;20034;-66
2023/02/11 03:05:44;;;;;;;19.47;11.13;;;2.20;55.70;;;;;;6218639;23;20018;-66
2023/02/11 03:08:17;;;;;;;18.77;10.17;;;2.30;55.70;;;;;;6245709;23;20000;-66
2023/02/11 03:10:47;;;;;;;24.03;10.20;;;2.30;55.60;;;;;;6245194;23;20000;-66
2023/02/11 03:13:18;;;;;;;15.77;9.87;;;2.30;55.60;;;;;;6245659;23;20470;-66
2023/02/11 03:15:48;;;;;;;19.13;11.30;;;2.30;55.20;;;;;;6245426;23;20079;-66
2023/02/11 03:18:18;;;;;;;17.87;10.87;;;2.30;55.80;;;;;;6245071;23;20008;-67
2023/02/11 03:20:49;;;;;;;19.93;11.90;;;2.30;55.90;;;;;;6245611;23;20080;-66
2023/02/11 03:23:27;;;;;;;20.13;11.73;;;2.30;55.90;;;;;;6247571;23;20004;-65
2023/02/11 03:26:04;;;;;;;19.47;11.20;;;2.30;56.00;;;;;;6247205;23;20012;-66
2023/02/11 03:28:37;;;;;;;18.03;11.43;;;2.30;56.00;;;;;;6247713;23;20020;-66
2023/02/11 03:31:10;;;;;;;17.15;11.15;;;2.30;56.10;;;;;;6220428;23;20004;-67
2023/02/11 03:33:54;;;;;;;16.43;10.03;;;2.30;55.90;;;;;;6247585;23;19996;-66
2023/02/11 03:36:33;;;;;;;17.13;11.20;;;2.30;55.90;;;;;;6247273;23;20011;-65
2023/02/11 03:39:00;;;;;;;20.07;11.53;;;2.30;56.00;;;;;;6247151;23;19996;-66
2023/02/11 03:41:27;;;;;;;16.77;9.63;;;2.30;55.90;;;;;;6247653;23;20008;-66
2023/02/11 03:43:57;;;;;;;15.40;9.40;;;2.30;55.90;;;;;;6247431;23;20007;-66
2023/02/11 03:46:29;;;;;;;19.57;10.53;;;2.30;56.00;;;;;;6247166;23;20043;-65
2023/02/11 03:49:01;;;;;;;16.88;9.65;;;2.30;55.90;;;;;;6247393;23;20051;-66
2023/02/11 03:51:29;;;;;;;17.17;9.90;;;2.20;55.60;;;;;;6247317;23;20050;-66
2023/02/11 03:53:58;;;;;;;22.03;11.07;;;2.30;55.40;;;;;;6246886;23;20365;-66
2023/02/11 03:56:28;;;;;;;20.97;11.67;;;2.30;55.40;;;;;;6247107;23;20000;-67
2023/02/11 03:58:54;;;;;;;18.07;11.47;;;2.30;55.70;;;;;;6247246;23;20434;-66
2023/02/11 04:01:20;;;;;;;18.87;12.30;;;2.30;55.60;;;;;;6247057;23;20000;-66
2023/02/11 04:03:45;;;;;;;20.73;13.37;;;2.30;55.80;;;;;;6247249;23;19997;-66
2023/02/11 04:06:11;;;;;;;24.00;13.80;;;2.20;55.90;;;;;;6246903;23;20044;-66
2023/02/11 04:08:37;;;;;;;26.73;14.80;;;2.20;55.90;;;;;;6246930;23;20003;-66
2023/02/11 04:11:02;;;;;;;26.03;15.53;;;2.20;55.90;;;;;;6246890;23;20007;-65
2023/02/11 04:13:29;;;;;;;31.60;16.47;;;2.20;55.80;;;;;;6246929;23;20422;-66
2023/02/11 04:15:54;;;;;;;33.03;15.37;;;2.10;55.80;;;;;;6247070;23;20066;-66
2023/02/11 04:18:20;;;;;;;26.53;15.83;;;2.10;55.80;;;;;;6246693;23;20028;-66
2023/02/11 04:20:46;;;;;;;29.77;16.47;;;2.00;56.20;;;;;;6247034;23;20004;-66
2023/02/11 04:23:11;;;;;;;27.70;15.13;;;2.00;56.20;;;;;;6246963;23;20080;-66
2023/02/11 04:25:37;;;;;;;29.17;15.83;;;2.00;56.20;;;;;;6246592;23;20438;-66
2023/02/11 04:28:03;;;;;;;31.03;15.20;;;1.90;56.20;;;;;;6247268;23;20008;-65
2023/02/11 04:30:28;;;;;;;25.90;14.70;;;1.80;56.30;;;;;;6246613;23;20000;-66
2023/02/11 04:32:54;;;;;;;28.07;15.20;;;1.80;56.50;;;;;;6246512;23;20093;-66
2023/02/11 04:35:20;;;;;;;28.57;15.17;;;1.80;56.40;;;;;;6246673;23;20011;-66
2023/02/11 04:37:46;;;;;;;24.43;14.23;;;1.70;56.40;;;;;;6246784;23;20004;-66
2023/02/11 04:40:12;;;;;;;24.43;14.70;;;1.70;56.70;;;;;;6246840;23;20407;-66
2023/02/11 04:42:37;;;;;;;25.90;14.83;;;1.60;56.70;;;;;;6246754;23;20419;-65
2023/02/11 04:45:04;;;;;;;24.80;13.93;;;1.60;56.80;;;;;;6246693;23;20012;-66
2023/02/11 04:47:29;;;;;;;28.00;14.30;;;1.50;56.70;;;;;;6246974;23;20099;-67
2023/02/11 04:49:55;;;;;;;27.40;13.63;;;1.50;57.00;;;;;;6246499;23;20008;-65
2023/02/11 04:52:21;;;;;;;24.50;14.70;;;1.50;57.40;;;;;;6246812;23;20050;-67
2023/02/11 04:54:47;;;;;;;22.47;13.37;;;1.50;57.20;;;;;;6246674;23;20004;-66
2023/02/11 04:57:12;;;;;;;24.20;14.93;;;1.40;57.20;;;;;;6246602;23;20031;-65
2023/02/11 04:59:39;;;;;;;31.43;15.67;;;1.40;57.20;;;;;;6246579;23;20472;-65
2023/02/11 05:02:05;;;;;;;29.47;16.07;;;1.50;57.50;;;;;;6246561;23;20000;-66
2023/02/11 05:04:30;;;;;;;31.17;16.43;;;1.50;57.60;;;;;;6246454;23;20035;-66
2023/02/11 05:06:56;;;;;;;29.63;16.00;;;1.50;57.60;;;;;;6219574;23;20020;-66
2023/02/11 05:09:22;;;;;;;28.40;15.20;;;1.40;57.60;;;;;;6246313;23;19996;-65
2023/02/11 05:11:48;;;;;;;26.83;15.00;;;1.50;58.10;;;;;;6246652;23;20010;-66
2023/02/11 05:14:14;;;;;;;26.87;15.03;;;1.50;57.70;;;;;;6246332;23;20068;-66
2023/02/11 05:16:40;;;;;;;24.17;13.97;;;1.50;57.60;;;;;;6246071;23;20461;-66
2023/02/11 05:19:05;;;;;;;23.40;14.23;;;1.50;57.60;;;;;;6246226;23;20000;-66
2023/02/11 05:21:31;;;;;;;25.47;14.80;;;1.50;57.80;;;;;;6246360;23;20083;-66
2023/02/11 05:23:57;;;;;;;21.30;13.27;;;1.50;57.80;;;;;;6246324;23;19996;-66
2023/02/11 05:26:23;;;;;;;23.80;12.27;;;1.40;57.70;;;;;;6219630;23;20331;-66
2023/02/11 05:28:48;;;;;;;18.03;11.37;;;1.40;57.90;;;;;;6246182;23;20003;-66
2023/02/11 05:31:15;;;;;;;23.23;11.93;;;1.40;57.80;;;;;;6246188;23;20004;-66
2023/02/11 05:33:42;;;;;;;21.23;11.93;;;1.50;57.70;;;;;;6246030;23;19997;-66
2023/02/11 05:36:10;;;;;;;18.33;10.87;;;1.40;57.70;;;;;;6246487;23;20367;-66
2023/02/11 05:38:36;;;;;;;23.80;12.37;;;1.40;57.80;;;;;;6246489;23;20058;-66
2023/02/11 05:41:04;;;;;;;21.67;11.50;;;1.40;58.00;;;;;;6246399;23;20103;-66
2023/02/11 05:43:30;;;;;;;19.33;11.77;;;1.40;57.80;;;;;;6245856;23;20311;-66
2023/02/11 05:45:56;;;;;;;20.40;10.93;;;1.40;57.60;;;;;;6245213;23;20018;-66
2023/02/11 05:48:21;;;;;;;25.73;12.73;;;1.30;57.70;;;;;;6245943;23;20381;-65
2023/02/11 05:50:47;;;;;;;21.13;11.53;;;1.30;57.70;;;;;;6246235;23;20446;-66
2023/02/11 05:53:14;;;;;;;25.03;12.00;;;1.30;58.40;;;;;;6246060;23;19999;-66
2023/02/11 05:55:39;;;;;;;21.90;12.50;;;1.20;57.70;;;;;;6245890;23;20004;-65
2023/02/11 05:58:06;;;;;;;24.07;12.43;;;1.20;57.60;;;;;;6246133;23;20007;-66
2023/02/11 06:00:33;;;;;;;27.27;13.83;;;1.20;57.90;;;;;;6246540;23;20004;-66
2023/02/11 06:02:59;;;;;;;29.20;12.87;;;1.20;57.90;;;;;;6246145;23;20000;-66
2023/02/11 06:05:25;;;;;;;21.57;12.80;;;1.10;58.00;;;;;;6246009;23;20046;-66
2023/02/11 06:07:51;;;;;;;23.37;12.93;;;1.10;58.20;;;;;;6245990;23;20000;-66
2023/02/11 06:10:16;;;;;;;19.87;11.40;;;1.10;58.40;;;;;;6245982;23;20488;-66
2023/02/11 06:12:43;;;;;;;29.67;12.40;;;1.10;58.50;;;;;;6246182;23;20000;-65
2023/02/11 06:15:09;;;;;;;21.23;12.37;;;1.00;58.50;;;;;;6245729;23;20026;-66
2023/02/11 06:17:35;;;;;;;27.17;12.67;;;1.00;58.50;;;;;;6245645;23;20502;-66
2023/02/11 06:20:03;;;;;;;24.77;11.73;;;1.00;58.50;;;;;;6245441;23;20043;-66
2023/02/11 06:22:29;;;;;;;25.40;12.50;;;1.00;58.60;;;;;;6245673;23;20066;-66
2023/02/11 06:24:55;;;;;;;25.77;12.33;;;1.00;58.40;;;;;;6245547;23;20369;-66
2023/02/11 06:27:20;;;;;;;23.43;12.77;;;1.00;58.60;;;;;;6245765;23;20001;-66
2023/02/11 06:29:46;;;;;;;30.07;13.93;;;0.90;58.70;;;;;;6245937;23;20031;-68
2023/02/11 06:32:12;;;;;;;26.23;13.80;;;0.90;58.70;;;;;;6245622;23;20127;-65
2023/02/11 06:34:38;;;;;;;27.97;13.40;;;0.90;58.80;;;;;;6245640;23;20333;-65
2023/02/11 06:37:04;;;;;;;24.30;13.40;;;0.90;58.90;;;;;;6245752;23;20036;-65
2023/02/11 06:39:30;;;;;;;31.03;14.80;;;0.90;59.20;;;;;;6245601;23;20427;-66
2023/02/11 06:41:55;;;;;;;26.13;13.20;;;0.90;59.20;;;;;;6245159;23;20000;-66
2023/02/11 06:44:21;;;;;;;27.37;14.27;;;0.90;59.30;;;;;;6245659;23;20054;-66
2023/02/11 06:46:47;;;;;;;27.13;14.53;;;0.90;59.50;;;;;;6245660;23;20067;-67
2023/02/11 06:49:13;;;;;;;24.00;13.63;;;0.90;59.40;;;;;;6245511;23;20000;-66
2023/02/11 06:51:39;;;;;;;32.90;14.33;;;0.90;59.30;;;;;;6245482;23;20050;-66
2023/02/11 06:54:05;;;;;;;29.87;14.70;;;1.00;59.30;;;;;;6245401;23;20058;-66
2023/02/11 06:56:32;;;;;;;26.83;14.57;;;1.00;59.40;;;;;;6245109;23;20304;-66
2023/02/11 06:58:58;;;;;;;24.43;14.40;;;1.00;59.70;;;;;;6245162;23;20000;-66
2023/02/11 07:01:25;;;;;;;29.33;13.77;;;1.00;59.80;;;;;;6245161;23;20004;-66
2023/02/11 07:03:51;;;;;;;28.47;16.00;;;1.00;60.00;;;;;;6245419;23;19997;-66
2023/02/11 07:06:20;;;;;;;35.00;17.00;;;1.10;59.90;;;;;;6245886;23;20439;-64
2023/02/11 07:08:46;;;;;;;32.20;16.50;;;1.10;59.70;;;;;;6244978;23;20111;-66
2023/02/11 07:11:13;;;;;;;31.63;17.57;;;1.10;59.60;;;;;;6245231;23;20000;-66
2023/02/11 07:13:39;;;;;;;28.50;15.07;;;1.10;59.60;;;;;;6245203;23;20000;-66
2023/02/11 07:16:10;;;;;;;32.10;16.00;;;1.20;59.80;;;;;;6245296;23;20004;-66
2023/02/11 07:18:37;;;;;;;30.13;14.40;;;1.20;59.60;;;;;;6245005;23;20373;-66
2023/02/11 07:21:07;;;;;;;29.87;16.10;;;1.30;59.50;;;;;;6244936;23;20230;-66
2023/02/11 07:23:34;;;;;;;28.53;15.03;;;1.30;59.60;;;;;;6244730;23;20106;-66
2023/02/11 07:26:04;;;;;;;26.43;14.30;;;1.30;59.70;;;;;;6244546;23;20015;-65
2023/02/11 07:28:29;;;;;;;26.60;13.93;;;1.40;59.70;;;;;;6245045;23;20007;-66
2023/02/11 07:30:55;;;;;;;22.10;13.10;;;1.40;59.70;;;;;;6245168;23;20411;-67
2023/02/11 07:33:21;;;;;;;28.67;13.70;;;1.50;59.60;;;;;;6244964;23;20075;-68
2023/02/11 07:35:47;;;;;;;32.00;15.07;;;1.60;59.50;;;;;;6244439;23;20066;-67
2023/02/11 07:38:13;;;;;;;39.70;17.00;;;1.70;59.50;;;;;;6244608;23;20007;-66
2023/02/11 07:40:38;;;;;;;29.70;14.67;;;1.70;59.20;;;;;;6244861;23;20027;-66
2023/02/11 07:43:04;;;;;;;29.40;15.20;;;1.70;59.10;;;;;;6244809;23;20046;-65
2023/02/11 07:45:30;;;;;;;30.67;14.67;;;1.70;59.00;;;;;;6244910;23;20465;-67
2023/02/11 07:47:55;;;;;;;29.13;14.47;;;1.80;58.80;;;;;;6245064;23;20027;-66
2023/02/11 07:50:21;;;;;;;28.27;15.20;;;1.90;58.60;;;;;;6244730;23;20000;-67
2023/02/11 07:52:46;;;;;;;37.03;15.63;;;2.00;58.50;;;;;;6245201;23;20004;-65
2023/02/11 07:55:12;;;;;;;38.37;15.53;;;2.10;58.30;;;;;;6245220;23;20015;-66
2023/02/11 07:57:38;;;;;;;43.50;15.53;;;2.10;58.00;;;;;;6244865;23;20345;-65
2023/02/11 08:00:05;;;;;;;29.77;15.53;;;2.20;57.80;;;;;;6244945;23;20014;-67
2023/02/11 08:02:30;;;;;;;32.97;14.17;;;2.30;57.90;;;;;;6244967;23;20004;-68
2023/02/11 08:04:56;;;;;;;24.40;11.87;;;2.40;57.80;;;;;;6244553;23;20016;-66
2023/02/11 08:07:21;;;;;;;37.00;12.93;;;2.60;58.00;;;;;;6241842;23;20374;-66
2023/02/11 08:09:47;;;;;;;27.30;10.87;;;2.70;57.50;;;;;;6243439;23;20304;-63
2023/02/11 08:12:13;;;;;;;24.97;10.13;;;2.80;56.50;;;;;;6243600;23;20019;-65
2023/02/11 08:14:38;;;;;;;23.67;10.13;;;2.80;56.40;;;;;;6246298;23;20005;-65
2023/02/11 08:17:04;;;;;;;24.30;11.27;;;2.90;56.10;;;;;;6246456;23;20075;-62
2023/02/11 08:19:30;;;;;;;21.93;12.47;;;3.00;56.00;;;;;;6246699;23;20054;-63
2023/02/11 08:21:56;;;;;;;24.53;13.13;;;3.00;55.70;;;;;;6246874;23;20000;-61
2023/02/11 08:24:22;;;;;;;29.20;15.30;;;3.00;55.40;;;;;;6246042;23;20430;-62
2023/02/11 08:26:48;;;;;;;34.77;18.33;;;3.10;55.50;;;;;;6245540;23;20011;-63
2023/02/11 08:29:15;;;;;;;34.33;16.77;;;3.10;55.90;;;;;;6243357;23;20012;-62
2023/02/11 08:31:44;;;;;;;30.47;16.23;;;3.10;56.30;;;;;;6243860;23;20426;-63
2023/02/11 08:34:12;;;;;;;30.03;15.13;;;3.10;56.40;;;;;;6246548;23;20000;-61
2023/02/11 08:36:40;;;;;;;28.67;16.37;;;3.20;56.50;;;;;;6246977;23;20000;-62
2023/02/11 08:39:17;;;;;;;40.17;20.03;;;3.20;56.60;;;;;;6246587;23;20449;-61
2023/02/11 08:41:43;;;;;;;32.23;17.97;;;3.30;56.90;;;;;;6242756;23;20008;-62
2023/02/11 08:44:08;;;;;;;34.57;17.17;;;3.40;57.30;;;;;;6243108;23;20079;-62
2023/02/11 08:46:34;;;;;;;26.93;17.17;;;3.50;57.30;;;;;;6242911;23;20406;-62
2023/02/11 08:49:00;;;;;;;31.63;17.43;;;3.60;57.30;;;;;;6243187;23;20430;-62
2023/02/11 08:51:29;;;;;;;29.90;17.47;;;3.70;57.10;;;;;;6246047;23;20015;-62
2023/02/11 08:53:55;;;;;;;28.50;16.63;;;3.80;56.80;;;;;;6246437;23;20358;-61
2023/02/11 08:56:24;;;;;;;29.83;17.00;;;4.00;56.90;;;;;;6246696;23;20007;-61
2023/02/11 08:58:51;;;;;;;30.73;16.87;;;4.00;56.60;;;;;;6246567;23;20024;-61
2023/02/11 09:01:25;;;;;;;24.53;14.63;;;4.20;56.50;;;;;;6246625;23;20032;-61
2023/02/11 09:03:51;;;;;;;26.70;14.53;;;;;;;;;;6246701;23;19997;-61
2023/02/11 09:06:17;;;;;;;26.13;14.83;;;4.30;55.50;;;;;;6246346;23;20378;-61
2023/02/11 09:08:48;;;;;;;22.63;12.93;;;4.50;55.70;;;;;;6245979;23;19996;-61
2023/02/11 09:11:15;;;;;;;27.53;13.57;;;;;;;;;;6246982;23;20389;-62
2023/02/11 09:13:42;;;;;;;21.80;12.93;;;;;;;;;;6247160;23;20088;-62
2023/02/11 09:16:14;;;;;;;22.40;11.43;;;4.80;54.50;;;;;;6246903;23;20050;-62
2023/02/11 09:18:40;;;;;;;23.15;12.60;;;4.90;55.10;;;;;;6239575;23;20078;-63
2023/02/11 09:21:08;;;;;;;22.83;12.03;;;5.00;54.80;;;;;;6242836;23;20121;-62
2023/02/11 09:23:35;;;;;;;23.60;12.07;;;5.10;54.20;;;;;;6244664;22;20011;-61
2023/02/11 09:26:18;;;;;;;20.20;11.47;;;5.10;53.40;;;;;;6246443;22;20019;-62
2023/02/11 09:28:44;;;;;;;25.40;11.73;;;5.20;53.40;;;;;;6246428;22;20075;-62
2023/02/11 09:31:13;;;;;;;18.83;10.90;;;5.30;53.80;;;;;;6245783;22;20067;-62
2023/02/11 09:33:46;;;;;;;19.87;11.17;;;5.30;53.20;;;;;;6246069;22;20054;-61
2023/02/11 09:36:20;;;;;;;18.97;10.47;;;5.40;52.90;;;;;;6246110;22;20038;-62
2023/02/11 09:38:46;;;;;;;19.07;10.60;;;5.40;52.60;;;;;;6246189;22;20001;-62
2023/02/11 09:41:34;;;;;;;18.23;10.47;;;5.50;52.30;;;;;;6246201;22;20011;-62
2023/02/11 09:44:05;;;;;;;18.43;11.43;;;5.50;52.70;;;;;;6243322;22;20000;-63
2023/02/11 09:46:38;;;;;;;15.57;9.70;;;5.50;52.50;;;;;;6241853;22;20016;-62
2023/02/11 09:49:06;;;;;;;17.77;10.57;;;5.50;52.50;;;;;;6241387;22;19996;-65
2023/02/11 09:51:52;;;;;;;18.50;10.00;;;5.60;52.10;;;;;;6244343;22;20000;-63
2023/02/11 09:54:45;;;;;;;17.90;9.70;;;5.70;51.70;;;;;;6244808;22;20426;-64
2023/02/11 09:57:11;;;;;;;16.95;8.25;;;5.70;51.20;;;;;;6245834;23;20327;-64
2023/02/11 09:59:36;;;;;;;15.80;8.87;;;5.80;50.90;;;;;;6243560;23;20317;-65
2023/02/11 10:02:26;;;;;;;13.83;8.57;;;5.80;50.60;;;;;;6246122;22;20428;-63
2023/02/11 10:05:10;;;;;;;15.40;8.70;;;5.80;50.40;;;;;;6245996;22;20016;-63
2023/02/11 10:08:19;;;;;;;15.33;9.27;;;5.90;50.40;;;;;;6246056;23;20003;-64
2023/02/11 10:11:11;;;;;;;16.67;9.93;;;5.90;50.20;;;;;;6233532;23;20016;-63
2023/02/11 10:13:44;;;;;;;16.97;9.87;;;6.00;50.00;;;;;;6241322;23;20043;-65
2023/02/11 10:16:18;;;;;;;14.85;9.15;;;6.00;50.30;;;;;;6246213;22;20054;-63
2023/02/11 10:19:25;;;;;;;18.03;9.17;;;6.00;50.10;;;;;;6245730;23;20499;-63
2023/02/11 10:21:58;;;;;;;15.10;9.83;;;6.10;49.90;;;;;;6239203;23;20016;-63
2023/02/11 10:24:27;;;;;;;17.70;10.07;;;6.10;50.00;;;;;;6245424;23;20011;-61
2023/02/11 10:26:53;;;;;;;15.77;9.90;;;6.10;50.00;;;;;;6245976;23;20095;-63
2023/02/11 10:29:39;;;;;;;17.77;9.83;;;6.10;49.50;;;;;;6245331;23;20371;-63
2023/02/11 10:32:30;;;;;;;16.43;10.30;;;6.20;49.10;;;;;;6245681;23;20062;-66
2023/02/11 10:35:01;;;;;;;21.83;10.40;;;6.30;49.10;;;;;;6246187;23;20012;-64
2023/02/11 10:37:27;;;;;;;18.73;10.40;;;6.30;48.90;;;;;;6245767;23;20057;-65
2023/02/11 10:39:53;;;;;;;17.57;10.53;;;6.50;48.90;;;;;;6245883;23;20004;-64
2023/02/11 10:42:18;;;;;;;21.17;11.60;;;6.50;49.30;;;;;;6245825;23;20007;-66
2023/02/11 10:45:05;;;;;;;18.30;10.93;;;6.60;48.60;;;;;;6245238;23;20000;-63
2023/02/11 10:47:36;;;;;;;20.97;11.07;;;6.70;48.80;;;;;;6246153;23;20081;-64
2023/02/11 10:50:23;;;;;;;19.13;11.43;;;6.80;48.70;;;;;;6245693;23;20030;-65
2023/02/11 10:52:49;;;;;;;17.33;10.87;;;6.90;48.70;;;;;;6245902;23;20003;-65
2023/02/11 10:55:20;;;;;;;20.93;11.23;;;7.00;48.30;;;;;;6245061;23;20004;-65
2023/02/11 10:57:51;;;;;;;20.00;11.00;;;7.10;48.30;;;;;;6243961;23;20014;-62
2023/02/11 11:00:17;;;;;;;18.40;10.47;;;7.10;48.40;;;;;;6243264;23;20307;-65
2023/02/11 11:02:43;;;;;;;17.53;10.60;;;7.20;48.10;;;;;;6243899;23;20007;-68
2023/02/11 11:05:23;;;;;;;17.13;10.77;;;7.20;48.10;;;;;;6244428;23;20058;-62
2023/02/11 11:07:58;;;;;;;17.67;10.27;;;7.30;48.50;;;;;;6244303;23;20007;-61
2023/02/11 11:10:45;;;;;;;16.23;8.70;;;7.40;48.40;;;;;;6245177;23;20110;-64
2023/02/11 11:13:33;;;;;;;12.83;8.00;;;7.50;47.90;;;;;;6244605;23;20004;-64
2023/02/11 11:16:15;;;;;;;13.93;7.57;;;7.60;46.30;;;;;;6244929;23;20141;-64
2023/02/11 11:18:44;;;;;;;11.65;7.25;;;7.60;45.50;;;;;;6244666;23;20367;-64
2023/02/11 11:21:22;;;;;;;13.87;8.00;;;7.70;45.00;;;;;;6244514;23;20027;-62
2023/02/11 11:23:55;;;;;;;10.60;6.30;;;7.70;44.90;;;;;;6245360;23;20398;-63
2023/02/11 11:26:23;;;;;;;11.30;7.73;;;7.70;45.00;;;;;;6244803;23;20023;-62
2023/02/11 11:28:48;;;;;;;12.13;6.30;;;7.70;45.10;;;;;;6244193;23;20000;-67
2023/02/11 11:31:35;;;;;;;13.37;7.07;;;7.70;44.60;;;;;;6245286;23;20007;-65
2023/02/11 11:34:27;;;;;;;13.50;6.93;;;7.60;44.60;;;;;;6245168;23;20399;-64
2023/02/11 11:36:54;;;;;;;10.37;6.90;;;7.60;44.60;;;;;;6241856;23;20058;-63
2023/02/11 11:39:26;;;;;;;13.27;7.20;;;7.60;45.30;;;;;;6241866;23;20012;-62
2023/02/11 11:42:01;;;;;;;18.65;7.82;;;7.60;46.00;;;;;;6245245;23;20004;-62
2023/02/11 11:44:32;;;;;;;13.63;8.33;;;7.60;46.10;;;;;;6247599;23;20019;-63
2023/02/11 11:47:14;;;;;;;15.10;8.40;;;7.80;45.60;;;;;;6247137;23;20015;-63
2023/02/11 11:50:18;;;;;;;14.53;8.90;;;7.90;45.20;;;;;;6246767;23;20058;-63
2023/02/11 11:52:53;;;;;;;16.97;8.63;;;7.90;45.00;;;;;;6124610;23;20006;-62
2023/02/11 11:55:25;;;;;;;16.53;9.13;;;8.00;45.10;;;;;;6232124;23;20071;-64
2023/02/11 11:57:51;;;;;;;15.38;8.90;;;8.00;45.20;;;;;;6247062;23;20005;-63
2023/02/11 12:00:22;;;;;;;13.53;8.63;;;8.10;45.20;;;;;;6246721;23;20005;-63
2023/02/11 12:03:03;;;;;;;13.07;8.57;;;8.20;45.30;;;;;;6246915;23;20000;-62
2023/02/11 12:05:51;;;;;;;15.30;8.80;;;8.30;45.20;;;;;;6247238;23;20312;-63
2023/02/11 12:08:30;;;;;;;14.07;9.23;;;8.50;45.40;;;;;;6228499;23;20011;-63
2023/02/11 12:11:20;;;;;;;12.67;8.83;;;8.60;45.00;;;;;;6246781;23;20374;-63
2023/02/11 12:13:58;;;;;;;14.03;8.73;;;8.80;44.90;;;;;;6247327;23;20409;-62
2023/02/11 12:16:54;;;;;;;14.87;8.70;;;9.00;44.70;;;;;;6246890;23;20072;-64
2023/02/11 12:19:58;;;;;;;18.67;9.83;;;9.10;43.90;;;;;;6247124;23;20039;-64
2023/02/11 12:22:53;;;;;;;15.20;9.97;;;9.30;43.80;;;;;;6246507;23;20078;-65
2023/02/11 12:25:26;;;;;;;14.70;9.33;;;9.40;43.60;;;;;;6247015;23;20004;-64
2023/02/11 12:28:19;;;;;;;;;;;9.50;43.50;;;;;;6245959;23;20437;-64
2023/02/11 12:31:08;;;;;;;13.57;8.60;;;9.70;43.60;;;;;;6243307;23;19900;-64
2023/02/11 12:33:53;;;;;;;13.10;8.90;;;9.80;43.70;;;;;;6244463;23;20231;-62
2023/02/11 12:36:40;;;;;;;13.30;8.60;;;9.90;43.40;;;;;;6247021;23;20019;-63
2023/02/11 12:39:31;;;;;;;15.23;9.27;;;10.00;43.20;;;;;;6246564;23;20324;-62
2023/02/11 12:45:11;;;;;;;12.73;7.43;;;10.20;42.50;;;;;;6246871;23;20141;-64
2023/02/11 12:47:55;;;;;;;12.00;8.40;;;10.20;41.50;;;;;;6246555;23;20011;-63
2023/02/11 12:50:20;;;;;;;15.10;8.97;;;10.30;41.80;;;;;;6246573;23;20118;-63
2023/02/11 12:53:15;;;;;;;10.23;7.43;;;10.40;41.80;;;;;;6218580;23;20062;-65
2023/02/11 12:55:45;;;;;;;17.73;8.60;;;10.50;41.40;;;;;;6238987;23;20077;-64
2023/02/11 12:58:25;;;;;;;12.83;8.53;;;10.60;41.40;;;;;;6216112;23;20015;-63
2023/02/11 13:00:53;;;;;;;17.63;8.40;;;10.70;40.90;;;;;;6242789;23;20012;-63
2023/02/11 13:03:36;;;;;;;12.00;7.53;;;10.70;40.80;;;;;;6243099;23;20074;-64
2023/02/11 13:06:04;;;;;;;14.93;8.63;;;10.80;40.60;;;;;;6245043;23;20012;-63
2023/02/11 13:08:39;;;;;;;13.53;7.80;;;10.80;40.20;;;;;;6246644;23;20031;-63
2023/02/11 13:11:14;;;;;;;13.93;7.67;;;10.90;40.20;;;;;;6245975;23;20000;-63
2023/02/11 13:14:00;;;;;;;12.40;7.87;;;11.00;39.20;;;;;;6246049;23;20004;-62